Time;durP1;ratioP1;P1;durP2;ratioP2;P2;SDS_P1;SDS_P2;PMS_P1;PMS_P2;Temp;Humidity;BMP_temperature;BMP_pressure;BME280_temperature;BME280_humidity;BME280_pressure;Samples;Min_cycle;Max_cycle;Signal;HPM_P1;HPM_P2
2023/06/27 00:01:41;;;;;;;5.82;2.67;;;14.90;99.90;;;;;;5116024;27;20459;-37
2023/06/27 00:04:07;;;;;;;4.65;2.33;;;14.90;99.90;;;;;;5116549;27;20047;-38
2023/06/27 00:06:41;;;;;;;6.30;2.90;;;14.90;99.90;;;;;;5095082;27;20523;-38
2023/06/27 00:09:09;;;;;;;3.55;2.25;;;14.90;99.90;;;;;;5117075;27;20575;-37
2023/06/27 00:11:38;;;;;;;5.07;2.65;;;14.90;99.90;;;;;;5116816;27;20125;-37
2023/06/27 00:14:05;;;;;;;5.25;2.60;;;14.90;99.90;;;;;;5094943;27;20085;-37
2023/06/27 00:16:34;;;;;;;5.32;2.78;;;14.90;99.90;;;;;;5117445;27;20048;-38
2023/06/27 00:19:04;;;;;;;13.10;2.83;;;14.90;99.90;;;;;;5114743;27;20046;-37
2023/06/27 00:21:31;;;;;;;5.60;2.50;;;14.90;99.90;;;;;;5117622;27;20042;-38
2023/06/27 00:23:57;;;;;;;4.90;2.20;;;14.90;99.90;;;;;;5114914;27;20096;-37
2023/06/27 00:26:23;;;;;;;6.72;3.05;;;14.90;99.90;;;;;;5115240;27;20046;-37
2023/06/27 00:28:49;;;;;;;5.45;2.60;;;14.90;99.90;;;;;;5115921;27;20047;-37
2023/06/27 00:31:14;;;;;;;7.40;3.00;;;14.90;99.90;;;;;;5114218;27;20049;-37
2023/06/27 00:33:40;;;;;;;5.18;2.90;;;14.90;99.90;;;;;;5115479;27;20043;-38
2023/06/27 00:36:05;;;;;;;4.60;2.28;;;14.90;99.90;;;;;;5095100;27;20047;-37
2023/06/27 00:38:32;;;;;;;8.40;2.80;;;14.90;99.90;;;;;;5112077;27;20050;-37
2023/06/27 00:40:58;;;;;;;5.78;3.13;;;14.80;99.90;;;;;;5076545;27;20039;-37
2023/06/27 00:43:23;;;;;;;7.25;2.55;;;14.90;99.90;;;;;;5113193;27;20477;-37
2023/06/27 00:45:52;;;;;;;8.70;3.55;;;14.80;99.90;;;;;;5114341;27;20047;-38
2023/06/27 00:48:19;;;;;;;6.75;2.72;;;14.80;99.90;;;;;;5115033;27;20552;-38
2023/06/27 00:50:45;;;;;;;8.05;3.38;;;14.90;99.90;;;;;;5094159;27;20091;-38
2023/06/27 00:53:11;;;;;;;6.57;3.58;;;14.90;99.90;;;;;;5094251;27;20684;-38
2023/06/27 00:55:39;;;;;;;8.90;3.05;;;14.80;99.90;;;;;;5113694;27;20054;-38
2023/06/27 00:58:11;;;;;;;11.13;3.22;;;14.80;99.90;;;;;;5112716;27;20144;-37
2023/06/27 01:00:37;;;;;;;4.82;2.78;;;14.80;99.90;;;;;;5078705;27;20051;-38
2023/06/27 01:03:03;;;;;;;7.65;3.35;;;14.80;99.90;;;;;;5115169;27;20101;-38
2023/06/27 01:05:29;;;;;;;6.70;3.03;;;14.80;99.90;;;;;;5113959;27;20924;-37
2023/06/27 01:08:02;;;;;;;6.00;2.97;;;14.80;99.90;;;;;;5115537;27;20477;-37
2023/06/27 01:10:34;;;;;;;10.15;3.05;;;14.80;99.90;;;;;;5115317;27;20043;-38
2023/06/27 01:13:41;;;;;;;6.43;2.90;;;14.80;99.90;;;;;;5115011;27;20055;-37
2023/06/27 01:16:08;;;;;;;7.32;3.50;;;14.90;99.90;;;;;;5095593;27;20082;-38
2023/06/27 01:18:39;;;;;;;6.00;2.95;;;14.90;99.90;;;;;;5113785;27;20047;-38
2023/06/27 01:21:09;;;;;;;4.63;2.95;;;14.90;99.90;;;;;;5098587;27;20404;-38
2023/06/27 01:23:51;;;;;;;5.32;3.13;;;14.90;99.90;;;;;;5113991;27;21923;-37
2023/06/27 01:26:16;;;;;;;4.78;3.53;;;14.90;99.90;;;;;;5094326;27;20070;-38
2023/06/27 01:28:42;;;;;;;7.05;3.30;;;14.90;99.90;;;;;;5114255;27;20047;-38
2023/06/27 01:31:36;;;;;;;8.48;3.15;;;14.80;99.90;;;;;;5114084;27;20070;-38
2023/06/27 01:34:31;;;;;;;6.78;3.75;;;14.80;99.90;;;;;;5105348;27;20452;-37
2023/06/27 01:37:12;;;;;;;7.18;3.78;;;14.80;99.90;;;;;;5094149;27;20485;-38
2023/06/27 01:39:43;;;;;;;10.95;3.67;;;14.80;99.90;;;;;;5109682;27;20047;-38
2023/06/27 01:42:23;;;;;;;7.20;3.80;;;14.70;99.90;;;;;;5093546;27;20493;-38
2023/06/27 01:44:50;;;;;;;8.88;4.00;;;14.70;99.90;;;;;;5113617;27;20366;-38
2023/06/27 01:47:17;;;;;;;5.30;3.47;;;14.60;99.90;;;;;;5115339;27;20043;-38
2023/06/27 01:49:44;;;;;;;6.30;4.00;;;14.60;99.90;;;;;;5113063;27;20039;-37
2023/06/27 01:52:13;;;;;;;7.47;4.25;;;14.60;99.90;;;;;;5092299;27;20085;-38
2023/06/27 01:54:43;;;;;;;10.13;5.05;;;14.60;99.90;;;;;;5093370;27;20035;-37
2023/06/27 01:57:09;;;;;;;6.78;4.93;;;14.60;99.90;;;;;;5113381;27;20122;-38
2023/06/27 01:59:35;;;;;;;10.95;4.90;;;14.60;99.90;;;;;;5111166;27;20055;-38
2023/06/27 02:02:02;;;;;;;12.45;5.53;;;14.50;99.90;;;;;;5082941;27;20066;-37
2023/06/27 02:04:28;;;;;;;7.63;4.63;;;14.50;99.90;;;;;;5079204;27;20051;-38
2023/06/27 02:06:54;;;;;;;8.48;4.97;;;14.50;99.90;;;;;;5119238;27;20154;-38
2023/06/27 02:09:19;;;;;;;8.50;5.05;;;14.50;99.90;;;;;;5135657;27;20049;-37
2023/06/27 02:11:46;;;;;;;9.10;5.03;;;14.50;99.90;;;;;;5135833;27;20050;-37
2023/06/27 02:14:12;;;;;;;6.47;5.07;;;14.50;99.90;;;;;;5134935;27;20507;-38
2023/06/27 02:16:38;;;;;;;10.20;5.22;;;14.40;99.90;;;;;;5135381;27;20590;-37
2023/06/27 02:19:04;;;;;;;5.72;5.20;;;14.40;99.90;;;;;;5135811;27;20039;-37
2023/06/27 02:21:30;;;;;;;8.20;5.05;;;14.40;99.90;;;;;;5128265;27;20138;-37
2023/06/27 02:23:56;;;;;;;7.22;5.60;;;14.40;99.90;;;;;;5088351;27;20520;-37
2023/06/27 02:26:21;;;;;;;9.05;6.20;;;14.40;99.90;;;;;;5116457;27;20035;-37
2023/06/27 02:28:47;;;;;;;7.78;5.85;;;14.40;99.90;;;;;;5134718;27;20130;-37
2023/06/27 02:31:13;;;;;;;11.15;6.72;;;14.30;99.90;;;;;;5115256;27;20595;-38
2023/06/27 02:33:38;;;;;;;8.95;7.28;;;14.30;99.90;;;;;;5134341;27;20154;-37
2023/06/27 02:36:05;;;;;;;12.25;8.35;;;14.30;99.90;;;;;;5098613;27;20050;-37
2023/06/27 02:38:31;;;;;;;14.77;9.85;;;14.30;99.90;;;;;;5101528;27;20323;-38
2023/06/27 02:40:57;;;;;;;11.23;8.63;;;14.20;99.90;;;;;;5093441;27;20103;-37
2023/06/27 02:43:23;;;;;;;10.07;8.93;;;14.20;99.90;;;;;;5105509;27;20048;-38
2023/06/27 02:45:48;;;;;;;12.70;8.23;;;14.10;99.90;;;;;;5112998;27;20239;-38
2023/06/27 02:48:14;;;;;;;10.98;8.77;;;14.10;99.90;;;;;;5114229;27;20505;-37
2023/06/27 02:50:40;;;;;;;10.23;9.00;;;14.10;99.90;;;;;;5118926;27;20057;-38
2023/06/27 02:53:05;;;;;;;12.40;8.00;;;14.10;99.90;;;;;;5135197;27;20050;-37
2023/06/27 02:55:31;;;;;;;11.30;8.30;;;14.10;99.90;;;;;;5134356;27;20058;-37
2023/06/27 02:57:56;;;;;;;13.23;8.30;;;14.10;99.90;;;;;;5135243;27;20045;-37
2023/06/27 03:00:22;;;;;;;11.32;8.75;;;14.00;99.90;;;;;;5134492;27;20054;-37
2023/06/27 03:02:48;;;;;;;10.38;8.13;;;14.00;99.90;;;;;;5135861;27;20073;-37
2023/06/27 03:05:14;;;;;;;11.57;8.35;;;14.00;99.90;;;;;;5081673;27;20043;-38
2023/06/27 03:07:39;;;;;;;15.02;9.40;;;14.00;99.90;;;;;;5134304;27;20042;-37
2023/06/27 03:10:05;;;;;;;9.95;8.25;;;14.00;99.90;;;;;;5114672;27;20572;-37
2023/06/27 03:12:31;;;;;;;13.45;8.00;;;14.00;99.90;;;;;;5121632;27;20051;-38
2023/06/27 03:14:58;;;;;;;10.50;8.65;;;14.00;99.90;;;;;;5113467;27;20656;-38
2023/06/27 03:17:24;;;;;;;13.82;8.75;;;14.00;99.90;;;;;;5114420;27;20046;-37
2023/06/27 03:19:50;;;;;;;11.30;8.23;;;14.10;99.90;;;;;;5095081;28;20055;-38
2023/06/27 03:22:16;;;;;;;11.27;8.80;;;14.10;99.90;;;;;;5114521;27;20043;-37
2023/06/27 03:24:42;;;;;;;14.63;9.32;;;14.00;99.90;;;;;;5113971;27;20831;-37
2023/06/27 03:27:07;;;;;;;13.90;8.80;;;14.10;99.90;;;;;;5113549;27;20779;-37
2023/06/27 03:29:33;;;;;;;12.48;8.18;;;14.00;99.90;;;;;;5113816;27;20047;-38
2023/06/27 03:31:59;;;;;;;13.70;8.68;;;14.10;99.90;;;;;;5113499;27;20078;-37
2023/06/27 03:34:25;;;;;;;15.57;9.20;;;14.20;99.90;;;;;;5106996;27;20043;-37
2023/06/27 03:36:50;;;;;;;10.48;8.93;;;14.20;99.90;;;;;;5100819;27;20034;-37
2023/06/27 03:39:16;;;;;;;15.07;8.82;;;14.30;99.90;;;;;;5096972;27;20072;-38
2023/06/27 03:41:41;;;;;;;10.80;8.07;;;14.40;99.90;;;;;;5105923;27;20047;-37
2023/06/27 03:44:08;;;;;;;13.60;9.13;;;14.50;99.90;;;;;;5085834;28;20103;-38
2023/06/27 03:46:34;;;;;;;9.93;8.10;;;14.60;99.90;;;;;;5126835;27;20046;-38
2023/06/27 03:49:00;;;;;;;10.90;8.23;;;15.00;99.90;;;;;;5114670;27;20066;-38
2023/06/27 03:51:27;;;;;;;12.52;7.72;;;15.50;99.90;;;;;;5125660;27;20621;-38
2023/06/27 03:53:52;;;;;;;11.82;7.53;;;16.00;99.90;;;;;;5133674;27;20308;-38
2023/06/27 03:56:18;;;;;;;10.98;6.97;;;16.60;99.90;;;;;;5136985;27;20414;-38
2023/06/27 03:58:44;;;;;;;10.75;6.72;;;17.20;99.90;;;;;;5137743;27;20043;-38
2023/06/27 04:01:11;;;;;;;12.20;6.50;;;17.80;99.90;;;;;;5106711;27;20044;-38
2023/06/27 04:03:36;;;;;;;9.82;6.93;;;18.20;99.90;;;;;;5116319;27;20571;-38
2023/06/27 04:06:02;;;;;;;8.57;5.90;;;18.70;99.90;;;;;;5115465;27;20115;-38
2023/06/27 04:08:28;;;;;;;9.23;6.25;;;19.20;99.90;;;;;;5117160;27;20104;-38
2023/06/27 04:10:53;;;;;;;8.95;6.00;;;19.70;99.90;;;;;;5116512;27;20577;-38
2023/06/27 04:13:19;;;;;;;7.55;5.75;;;20.00;99.90;;;;;;5098303;27;20328;-39
2023/06/27 04:15:45;;;;;;;8.30;5.80;;;20.40;99.90;;;;;;5116499;27;20051;-38
2023/06/27 04:18:10;;;;;;;7.22;5.90;;;20.70;99.90;;;;;;5116048;27;20148;-39
2023/06/27 04:20:36;;;;;;;7.70;5.80;;;21.10;99.90;;;;;;5102888;27;20475;-38
2023/06/27 04:23:03;;;;;;;9.30;5.32;;;21.30;99.90;;;;;;5116385;27;20042;-39
2023/06/27 04:25:33;;;;;;;7.75;5.75;;;21.70;99.90;;;;;;5116953;27;20605;-38
2023/06/27 04:27:59;;;;;;;7.03;4.90;;;21.90;99.90;;;;;;5116650;27;20047;-39
2023/06/27 04:30:25;;;;;;;8.90;5.55;;;22.30;99.90;;;;;;5116510;27;20039;-39
2023/06/27 04:32:50;;;;;;;9.82;4.72;;;22.70;99.90;;;;;;5118505;27;20074;-39
2023/06/27 04:35:20;;;;;;;6.95;5.00;;;23.50;99.90;;;;;;5109672;27;20043;-39
2023/06/27 04:37:46;;;;;;;8.98;4.20;;;24.00;99.90;;;;;;5124648;27;20384;-40
2023/06/27 04:40:12;;;;;;;8.25;4.60;;;24.40;99.90;;;;;;5101142;27;20097;-40
2023/06/27 04:42:38;;;;;;;8.15;4.20;;;25.10;99.90;;;;;;5115306;27;20050;-40
2023/06/27 04:45:08;;;;;;;7.65;4.05;;;25.60;99.90;;;;;;5113070;27;20390;-39
2023/06/27 04:47:36;;;;;;;7.57;4.10;;;26.10;97.60;;;;;;5091704;27;20049;-40
2023/06/27 04:50:05;;;;;;;6.60;3.10;;;26.20;96.60;;;;;;5121567;27;20039;-40
2023/06/27 04:52:31;;;;;;;7.78;3.53;;;26.60;96.80;;;;;;5080906;27;20497;-41
2023/06/27 04:54:56;;;;;;;9.98;3.80;;;26.60;95.30;;;;;;5115116;27;20323;-40
2023/06/27 04:57:22;;;;;;;4.55;3.08;;;26.60;94.70;;;;;;5097466;27;20035;-40
2023/06/27 04:59:48;;;;;;;7.88;3.30;;;26.60;94.90;;;;;;5116147;27;20051;-40
2023/06/27 05:02:14;;;;;;;6.38;3.05;;;26.50;94.50;;;;;;5116210;27;20043;-40
2023/06/27 05:04:39;;;;;;;6.57;2.97;;;26.40;94.40;;;;;;5116054;27;20051;-39
2023/06/27 05:07:05;;;;;;;6.63;3.03;;;26.70;95.10;;;;;;5116773;27;20130;-40
2023/06/27 05:09:31;;;;;;;7.22;2.60;;;27.00;94.90;;;;;;5116051;27;20448;-40
2023/06/27 05:11:56;;;;;;;6.63;3.00;;;27.10;94.40;;;;;;5124598;27;20135;-40
2023/06/27 05:14:22;;;;;;;8.23;2.60;;;27.10;94.70;;;;;;5120482;27;20485;-41
2023/06/27 05:16:48;;;;;;;6.85;2.40;;;27.50;94.30;;;;;;5116582;27;20051;-40
2023/06/27 05:19:13;;;;;;;7.38;2.33;;;27.60;94.40;;;;;;5115243;27;20058;-41
2023/06/27 05:21:39;;;;;;;7.35;3.00;;;28.30;93.70;;;;;;5116110;27;20103;-40
2023/06/27 05:24:05;;;;;;;8.48;2.70;;;28.30;92.80;;;;;;5115449;27;20047;-40
2023/06/27 05:26:34;;;;;;;7.10;2.40;;;28.40;92.90;;;;;;5098278;27;20047;-41
2023/06/27 05:29:00;;;;;;;8.77;2.50;;;29.20;91.70;;;;;;5114804;27;20472;-40
2023/06/27 05:31:27;;;;;;;8.45;2.55;;;29.10;91.40;;;;;;5124318;27;20540;-41
2023/06/27 05:33:53;;;;;;;6.18;2.67;;;29.10;91.40;;;;;;5131267;27;20116;-40
2023/06/27 05:36:19;;;;;;;7.50;2.75;;;29.50;91.70;;;;;;5103595;27;20126;-40
2023/06/27 05:38:44;;;;;;;7.28;2.17;;;30.20;91.10;;;;;;5102357;27;20492;-42
2023/06/27 05:41:10;;;;;;;5.20;1.92;;;30.30;90.10;;;;;;5092818;27;20231;-40
2023/06/27 05:43:36;;;;;;;6.22;1.80;;;30.20;89.40;;;;;;5112388;27;20123;-40
2023/06/27 05:46:01;;;;;;;5.72;2.10;;;30.00;89.00;;;;;;5115943;27;20139;-42
2023/06/27 05:48:27;;;;;;;8.52;2.55;;;30.60;88.20;;;;;;5116877;27;20088;-41
2023/06/27 05:50:53;;;;;;;6.43;2.42;;;30.70;89.00;;;;;;5120544;27;20086;-41
2023/06/27 05:53:18;;;;;;;5.68;1.73;;;30.80;88.50;;;;;;5101753;27;20584;-41
2023/06/27 05:55:44;;;;;;;6.28;2.42;;;31.10;88.60;;;;;;5115107;27;20074;-41
2023/06/27 05:58:10;;;;;;;4.70;1.98;;;31.30;87.60;;;;;;5114598;27;20047;-41
2023/06/27 06:00:35;;;;;;;6.38;2.40;;;31.50;84.40;;;;;;5114809;27;20424;-41
2023/06/27 06:03:01;;;;;;;7.20;2.10;;;32.00;84.40;;;;;;5114437;27;20492;-41
2023/06/27 06:05:26;;;;;;;5.93;1.77;;;31.70;84.70;;;;;;5114908;27;20186;-40
2023/06/27 06:07:52;;;;;;;4.20;1.92;;;32.00;81.60;;;;;;5115013;27;20125;-42
2023/06/27 06:10:18;;;;;;;7.63;2.03;;;32.20;82.50;;;;;;5114981;27;20484;-42
2023/06/27 06:12:44;;;;;;;6.15;2.05;;;32.30;79.60;;;;;;5130625;27;20051;-41
2023/06/27 06:15:10;;;;;;;6.78;2.22;;;32.20;79.40;;;;;;5135031;27;20651;-41
2023/06/27 06:17:35;;;;;;;4.13;1.92;;;32.60;79.90;;;;;;5135279;27;20047;-43
2023/06/27 06:20:03;;;;;;;4.70;1.83;;;33.30;80.20;;;;;;5134649;27;20416;-41
2023/06/27 06:22:29;;;;;;;5.50;1.90;;;33.20;77.90;;;;;;5123200;27;20574;-41
2023/06/27 06:24:55;;;;;;;6.05;1.88;;;33.00;75.00;;;;;;5111358;27;20058;-41
2023/06/27 06:27:21;;;;;;;5.28;2.00;;;33.10;76.10;;;;;;5109001;27;20047;-41
2023/06/27 06:29:47;;;;;;;4.00;1.65;;;33.40;76.30;;;;;;5110449;27;20510;-42
2023/06/27 06:32:12;;;;;;;5.78;2.60;;;33.60;74.30;;;;;;5108392;27;20061;-43
2023/06/27 06:34:38;;;;;;;5.15;1.95;;;33.60;74.00;;;;;;5104581;27;20481;-41
2023/06/27 06:37:04;;;;;;;5.18;1.95;;;33.40;73.50;;;;;;5109632;27;20489;-41
2023/06/27 06:39:29;;;;;;;5.97;1.90;;;33.00;73.80;;;;;;5088635;27;20142;-41
2023/06/27 06:41:55;;;;;;;5.25;1.60;;;32.20;73.10;;;;;;5111479;27;20489;-40
2023/06/27 06:44:21;;;;;;;4.70;1.90;;;31.20;74.00;;;;;;5106371;27;20853;-41
2023/06/27 06:46:47;;;;;;;7.25;1.80;;;30.20;75.60;;;;;;5110321;27;20035;-41
2023/06/27 06:49:12;;;;;;;7.95;2.08;;;29.20;76.60;;;;;;5111012;27;20644;-40
2023/06/27 06:51:38;;;;;;;7.57;1.60;;;28.30;77.90;;;;;;5092944;27;20493;-40
2023/06/27 06:54:04;;;;;;;5.90;2.20;;;27.50;79.00;;;;;;5110778;27;20154;-41
2023/06/27 06:56:29;;;;;;;4.82;1.85;;;26.90;79.00;;;;;;5103650;27;20132;-40
2023/06/27 06:58:55;;;;;;;5.40;1.70;;;26.50;81.20;;;;;;5109769;27;20054;-40
2023/06/27 07:01:21;;;;;;;4.35;1.33;;;25.90;80.90;;;;;;5110971;27;20990;-41
2023/06/27 07:03:46;;;;;;;3.90;1.63;;;25.40;79.50;;;;;;5111470;27;20162;-39
2023/06/27 07:06:12;;;;;;;6.20;1.90;;;25.40;80.00;;;;;;5113736;27;20096;-40
2023/06/27 07:08:38;;;;;;;6.22;1.75;;;25.30;80.70;;;;;;5112211;27;20445;-40
2023/06/27 07:11:04;;;;;;;3.60;1.73;;;25.30;82.10;;;;;;5111794;27;20699;-40
2023/06/27 07:13:30;;;;;;;3.63;1.65;;;25.50;82.20;;;;;;5112386;27;20043;-39
2023/06/27 07:15:55;;;;;;;4.75;1.67;;;25.60;82.10;;;;;;5110823;27;20130;-40
2023/06/27 07:18:21;;;;;;;7.25;2.05;;;25.60;82.20;;;;;;5111877;27;20042;-40
2023/06/27 07:20:47;;;;;;;8.50;1.77;;;25.70;82.80;;;;;;5109139;27;20546;-40
2023/06/27 07:23:14;;;;;;;5.22;1.65;;;25.80;80.80;;;;;;5111596;27;20035;-40
2023/06/27 07:25:41;;;;;;;4.38;1.80;;;25.60;81.20;;;;;;5111267;27;20813;-39
2023/06/27 07:28:07;;;;;;;6.60;1.83;;;24.90;83.30;;;;;;5109793;27;20046;-41
2023/06/27 07:30:32;;;;;;;4.38;1.80;;;24.50;84.00;;;;;;5113578;27;20035;-39
2023/06/27 07:32:58;;;;;;;5.57;1.60;;;24.20;85.20;;;;;;5114514;27;20039;-40
2023/06/27 07:35:25;;;;;;;3.67;1.40;;;24.10;86.70;;;;;;5091399;27;20887;-40
2023/06/27 07:37:51;;;;;;;6.38;1.60;;;23.60;87.90;;;;;;5113949;27;20039;-40
2023/06/27 07:40:16;;;;;;;5.03;1.90;;;23.50;87.70;;;;;;5111566;27;20039;-40
2023/06/27 07:42:42;;;;;;;6.32;1.90;;;23.40;88.80;;;;;;5114432;27;20050;-39
2023/06/27 07:45:09;;;;;;;4.88;1.50;;;23.40;89.90;;;;;;5113383;27;20043;-39
2023/06/27 07:47:35;;;;;;;5.05;1.80;;;23.50;90.50;;;;;;5110354;27;20073;-40
2023/06/27 07:50:01;;;;;;;3.85;1.35;;;23.60;90.90;;;;;;5099715;27;20142;-39
2023/06/27 07:52:26;;;;;;;4.32;1.77;;;23.90;90.70;;;;;;5102470;27;20158;-39
2023/06/27 07:54:52;;;;;;;7.28;2.42;;;23.90;90.30;;;;;;5090762;27;20051;-40
2023/06/27 07:57:17;;;;;;;7.35;1.77;;;24.10;90.00;;;;;;5108214;27;20073;-39
2023/06/27 07:59:44;;;;;;;6.78;1.42;;;23.90;90.90;;;;;;5097811;27;20115;-39
2023/06/27 08:02:10;;;;;;;5.25;1.65;;;24.00;90.90;;;;;;5102940;27;20086;-39
2023/06/27 08:04:35;;;;;;;7.38;2.00;;;23.90;90.00;;;;;;5108048;27;20047;-39
2023/06/27 08:07:01;;;;;;;6.95;1.92;;;24.10;90.70;;;;;;5112796;27;20774;-39
2023/06/27 08:09:26;;;;;;;5.47;1.65;;;24.40;91.10;;;;;;5116106;27;20050;-40
2023/06/27 08:11:54;;;;;;;5.75;1.60;;;24.70;91.50;;;;;;5098196;27;20066;-40
2023/06/27 08:14:19;;;;;;;5.00;1.60;;;24.60;90.90;;;;;;5114771;27;20077;-39
2023/06/27 08:16:45;;;;;;;7.38;1.65;;;24.90;90.80;;;;;;5103611;27;20039;-39
2023/06/27 08:19:10;;;;;;;6.90;1.90;;;25.10;90.80;;;;;;5093613;27;20059;-39
2023/06/27 08:21:36;;;;;;;7.90;2.00;;;25.40;89.30;;;;;;5082924;28;20685;-40
2023/06/27 08:24:03;;;;;;;8.40;2.13;;;25.60;88.00;;;;;;5067698;27;20058;-39
2023/06/27 08:26:29;;;;;;;6.95;1.77;;;25.40;87.40;;;;;;5109136;27;20095;-39
2023/06/27 08:28:55;;;;;;;9.75;2.00;;;25.50;88.70;;;;;;5107834;27;20636;-39
2023/06/27 08:31:22;;;;;;;3.50;1.42;;;25.60;88.70;;;;;;5114238;27;20043;-39
2023/06/27 08:33:47;;;;;;;9.98;1.55;;;25.50;89.50;;;;;;5096341;27;20043;-39
2023/06/27 08:36:13;;;;;;;5.50;1.77;;;25.30;90.10;;;;;;5066926;27;20066;-40
2023/06/27 08:38:39;;;;;;;8.48;2.05;;;25.00;89.70;;;;;;5080886;27;20044;-39
2023/06/27 08:41:05;;;;;;;8.05;2.35;;;24.50;90.10;;;;;;5062797;27;20058;-39
2023/06/27 08:43:30;;;;;;;7.50;1.88;;;24.40;90.80;;;;;;5106883;27;20042;-39
2023/06/27 08:45:57;;;;;;;12.18;2.20;;;24.20;91.10;;;;;;5095743;27;20073;-39
2023/06/27 08:48:24;;;;;;;9.13;1.98;;;24.10;91.50;;;;;;5101146;27;20039;-39
2023/06/27 08:50:53;;;;;;;5.82;2.00;;;24.10;91.40;;;;;;5117842;27;20055;-40
2023/06/27 08:53:21;;;;;;;5.05;1.60;;;24.00;91.60;;;;;;5109504;27;20116;-40
2023/06/27 08:56:00;;;;;;;9.43;2.10;;;24.00;92.30;;;;;;5118691;27;20043;-39
2023/06/27 08:58:31;;;;;;;4.18;1.80;;;23.90;91.90;;;;;;5130404;27;20035;-39
2023/06/27 09:00:57;;;;;;;7.68;1.90;;;23.70;92.10;;;;;;5111176;27;20043;-39
2023/06/27 09:03:24;;;;;;;4.43;1.70;;;23.70;92.00;;;;;;5112859;27;20049;-39
2023/06/27 09:05:50;;;;;;;4.93;1.67;;;23.60;92.50;;;;;;5111686;27;20106;-39
2023/06/27 09:08:19;;;;;;;6.45;1.67;;;23.70;92.50;;;;;;5082632;27;20184;-39
2023/06/27 09:10:45;;;;;;;5.80;2.13;;;23.60;93.10;;;;;;5097078;27;20047;-39
2023/06/27 09:13:11;;;;;;;7.25;2.15;;;23.70;93.50;;;;;;5104654;27;20955;-39
2023/06/27 09:15:36;;;;;;;7.03;2.20;;;23.80;93.50;;;;;;5108554;27;20639;-39
2023/06/27 09:18:02;;;;;;;6.40;1.75;;;23.80;93.50;;;;;;5081082;27;20058;-39
2023/06/27 09:20:28;;;;;;;6.32;2.70;;;23.90;93.00;;;;;;5095440;27;20518;-39
2023/06/27 09:22:57;;;;;;;5.30;1.90;;;24.10;93.10;;;;;;5091637;28;20047;-39
2023/06/27 09:25:24;;;;;;;5.90;2.47;;;24.00;92.30;;;;;;5099515;27;20459;-40
2023/06/27 09:27:50;;;;;;;6.78;1.50;;;24.00;91.80;;;;;;5110850;27;20081;-40
2023/06/27 09:30:16;;;;;;;7.50;2.13;;;24.10;92.40;;;;;;5098428;27;20112;-39
2023/06/27 09:33:02;;;;;;;8.00;2.38;;;24.20;92.50;;;;;;5112340;27;20875;-39
2023/06/27 09:35:31;;;;;;;6.95;2.03;;;24.30;92.60;;;;;;5103637;27;20335;-39
2023/06/27 09:38:08;;;;;;;6.55;2.05;;;24.50;93.00;;;;;;5118704;27;20583;-39
2023/06/27 09:40:37;;;;;;;9.95;2.08;;;24.80;92.00;;;;;;5098760;27;20049;-40
2023/06/27 09:43:06;;;;;;;3.90;1.70;;;24.90;92.30;;;;;;5118580;27;20048;-39
2023/06/27 09:45:31;;;;;;;6.50;2.08;;;24.90;91.60;;;;;;5104409;27;20096;-39
2023/06/27 09:48:01;;;;;;;6.50;2.00;;;24.50;91.80;;;;;;5104113;27;20118;-39
2023/06/27 09:50:31;;;;;;;5.00;1.80;;;24.40;91.80;;;;;;5090781;27;20043;-40
2023/06/27 09:52:59;;;;;;;5.82;1.83;;;24.50;92.00;;;;;;5080144;27;20049;-40
2023/06/27 09:55:25;;;;;;;6.90;2.55;;;24.70;92.10;;;;;;5103324;27;20054;-41
2023/06/27 09:57:52;;;;;;;4.43;1.80;;;25.00;92.00;;;;;;5099416;27;20039;-39
2023/06/27 10:00:22;;;;;;;5.05;2.10;;;25.10;91.40;;;;;;5101714;27;20051;-39
2023/06/27 10:02:50;;;;;;;5.07;2.00;;;25.20;91.40;;;;;;5064466;27;20516;-39
2023/06/27 10:05:17;;;;;;;10.23;1.85;;;25.40;91.20;;;;;;5107172;27;20039;-40
2023/06/27 10:07:43;;;;;;;3.80;1.50;;;25.40;90.20;;;;;;5074835;27;20079;-44
2023/06/27 10:10:10;;;;;;;4.80;1.70;;;25.40;89.70;;;;;;5103754;27;20527;-41
2023/06/27 10:12:36;;;;;;;9.90;2.00;;;25.50;90.40;;;;;;5106194;27;20089;-39
2023/06/27 10:15:03;;;;;;;4.00;1.40;;;25.50;90.20;;;;;;5103267;27;20054;-39
2023/06/27 10:17:29;;;;;;;5.60;2.15;;;25.80;91.40;;;;;;5103422;27;20038;-39
2023/06/27 10:19:56;;;;;;;4.70;1.80;;;26.10;90.40;;;;;;5081918;27;20043;-39
2023/06/27 10:22:29;;;;;;;7.78;1.40;;;26.00;89.20;;;;;;5101884;27;20116;-40
2023/06/27 10:25:05;;;;;;;6.80;2.15;;;25.80;88.70;;;;;;5084948;27;20039;-39
2023/06/27 10:27:35;;;;;;;3.70;1.25;;;25.10;88.60;;;;;;5103411;27;20094;-40
2023/06/27 10:30:25;;;;;;;6.90;2.10;;;25.00;90.00;;;;;;5104550;27;20051;-39
2023/06/27 10:33:06;;;;;;;7.10;1.80;;;25.00;90.80;;;;;;5111697;27;20046;-40
2023/06/27 10:35:31;;;;;;;7.75;2.20;;;25.00;90.80;;;;;;5107762;27;20058;-39
2023/06/27 10:38:18;;;;;;;4.95;1.83;;;25.20;90.60;;;;;;5107908;27;20038;-39
2023/06/27 10:41:09;;;;;;;6.68;2.22;;;25.30;91.20;;;;;;5108546;27;20073;-39
2023/06/27 10:43:38;;;;;;;7.80;2.00;;;25.20;90.50;;;;;;5108593;27;20511;-40
2023/06/27 10:46:16;;;;;;;5.90;1.92;;;25.30;90.20;;;;;;5109386;27;20055;-39
2023/06/27 10:48:49;;;;;;;5.32;1.85;;;25.30;89.90;;;;;;5109395;27;20124;-40
2023/06/27 10:51:23;;;;;;;7.78;2.30;;;25.30;90.00;;;;;;5102640;27;20053;-39
2023/06/27 10:54:08;;;;;;;6.85;2.05;;;25.20;90.60;;;;;;5109825;27;20097;-39
2023/06/27 10:56:39;;;;;;;9.20;1.95;;;25.20;90.80;;;;;;5072213;27;20873;-39
2023/06/27 10:59:09;;;;;;;4.88;1.88;;;25.30;90.80;;;;;;5109242;27;20082;-39
2023/06/27 11:01:40;;;;;;;7.93;1.77;;;25.30;89.90;;;;;;5107981;27;20043;-39
2023/06/27 11:04:40;;;;;;;7.72;1.90;;;25.30;89.50;;;;;;5108282;27;20044;-39
2023/06/27 11:07:12;;;;;;;7.47;2.25;;;25.40;90.10;;;;;;5097721;27;20051;-39
2023/06/27 11:09:48;;;;;;;6.03;1.83;;;25.30;90.30;;;;;;5106053;27;20038;-41
2023/06/27 11:12:15;;;;;;;5.57;1.83;;;25.50;91.30;;;;;;5088676;27;20771;-39
2023/06/27 11:14:46;;;;;;;7.57;1.88;;;25.80;90.40;;;;;;5114624;27;20150;-39
2023/06/27 11:17:12;;;;;;;8.13;2.30;;;25.70;89.80;;;;;;5087927;27;20045;-40
2023/06/27 11:19:39;;;;;;;6.82;1.85;;;26.10;90.40;;;;;;5088588;27;20133;-40
2023/06/27 11:22:06;;;;;;;5.88;1.80;;;25.80;89.30;;;;;;5103175;27;20047;-40
2023/06/27 11:24:32;;;;;;;8.02;2.28;;;26.00;89.70;;;;;;5095371;27;20117;-40
2023/06/27 11:27:06;;;;;;;5.40;2.17;;;25.70;90.00;;;;;;5108923;27;20123;-40
2023/06/27 11:29:33;;;;;;;5.70;2.22;;;25.70;89.80;;;;;;5107245;27;20035;-40
2023/06/27 11:31:59;;;;;;;5.50;1.63;;;25.60;89.70;;;;;;5105953;27;20065;-39
2023/06/27 11:34:25;;;;;;;6.07;2.10;;;25.60;89.10;;;;;;5106787;27;20545;-39
2023/06/27 11:36:51;;;;;;;8.82;2.28;;;25.50;87.40;;;;;;5106365;27;20131;-39
2023/06/27 11:39:16;;;;;;;6.47;2.10;;;25.50;89.60;;;;;;5084038;27;20117;-39
2023/06/27 11:41:46;;;;;;;5.18;1.40;;;25.30;90.00;;;;;;5085205;27;20055;-39
2023/06/27 11:44:16;;;;;;;7.72;1.73;;;25.40;89.10;;;;;;5098922;27;21023;-39
2023/06/27 11:46:53;;;;;;;6.05;1.75;;;25.50;90.20;;;;;;5105154;27;20058;-39
2023/06/27 11:49:27;;;;;;;4.35;1.73;;;25.50;87.60;;;;;;5107418;27;20568;-39
2023/06/27 11:52:05;;;;;;;5.63;1.95;;;25.40;87.70;;;;;;5102767;27;20043;-40
2023/06/27 11:54:31;;;;;;;6.68;1.85;;;25.30;90.40;;;;;;5100440;27;20054;-40
2023/06/27 11:57:01;;;;;;;5.20;1.70;;;25.20;88.00;;;;;;5105979;27;20063;-39
2023/06/27 11:59:31;;;;;;;6.25;1.73;;;24.80;86.80;;;;;;5102171;27;20062;-39
2023/06/27 12:01:58;;;;;;;5.60;1.70;;;24.60;88.40;;;;;;5113250;27;20043;-39
2023/06/27 12:04:24;;;;;;;5.72;1.67;;;24.50;87.70;;;;;;5112485;27;20460;-39
2023/06/27 12:06:52;;;;;;;8.98;1.90;;;24.50;88.40;;;;;;5115007;27;20213;-39
2023/06/27 12:09:22;;;;;;;3.30;1.40;;;24.50;89.80;;;;;;5113922;27;20050;-39
2023/06/27 12:12:03;;;;;;;6.47;1.73;;;24.40;89.50;;;;;;5089097;27;20378;-39
2023/06/27 12:14:29;;;;;;;5.63;1.80;;;24.40;90.10;;;;;;5105824;27;20169;-39
2023/06/27 12:16:55;;;;;;;4.68;1.60;;;24.50;90.50;;;;;;5101528;27;20043;-40
2023/06/27 12:19:22;;;;;;;3.58;1.60;;;24.40;90.00;;;;;;5109666;27;20400;-40
2023/06/27 12:21:48;;;;;;;7.18;1.73;;;24.20;89.20;;;;;;5113133;27;20045;-40
2023/06/27 12:24:14;;;;;;;6.65;1.50;;;24.20;88.90;;;;;;5112578;27;20145;-40
2023/06/27 12:26:40;;;;;;;5.03;1.77;;;24.30;90.00;;;;;;5114076;27;20118;-40
2023/06/27 12:29:07;;;;;;;6.30;1.73;;;24.20;88.30;;;;;;5094001;27;20042;-40
2023/06/27 12:31:37;;;;;;;5.70;1.83;;;24.30;90.20;;;;;;5114216;27;20373;-40
2023/06/27 12:34:03;;;;;;;8.50;2.08;;;24.60;91.30;;;;;;5110789;27;20051;-39
2023/06/27 12:36:33;;;;;;;3.97;1.70;;;24.90;91.00;;;;;;5112727;27;20421;-40
2023/06/27 12:39:00;;;;;;;5.60;1.70;;;25.10;90.60;;;;;;5108522;27;20081;-40
2023/06/27 12:41:27;;;;;;;10.05;1.83;;;24.90;87.30;;;;;;5112629;27;20070;-41
2023/06/27 12:43:53;;;;;;;3.00;1.52;;;25.00;89.80;;;;;;5113223;27;20130;-41
2023/06/27 12:46:19;;;;;;;3.22;1.38;;;25.00;85.40;;;;;;5113647;27;20113;-40
2023/06/27 12:48:46;;;;;;;6.68;2.05;;;24.80;88.50;;;;;;5114229;27;20552;-40